createdAt,value
2023-04-26T00:00:04.019Z,10.75
2023-04-26T00:02:04.343Z,10.50
2023-04-26T00:03:03.984Z,10.50
2023-04-26T00:04:04.085Z,10.38
2023-04-26T00:05:04.043Z,10.31
2023-04-26T00:06:04.137Z,10.19
2023-04-26T00:07:04.168Z,10.12
2023-04-26T00:08:03.790Z,10.06
2023-04-26T00:09:04.326Z,10.25
2023-04-26T00:10:04.527Z,10.19
2023-04-26T00:11:04.086Z,10.31
2023-04-26T00:12:04.486Z,10.25
2023-04-26T00:14:03.938Z,10.25
2023-04-26T00:15:04.414Z,10.44
2023-04-26T00:16:04.136Z,10.31
2023-04-26T00:18:03.532Z,10.25
2023-04-26T00:19:04.191Z,10.31
2023-04-26T00:20:03.693Z,10.25
2023-04-26T00:22:04.115Z,10.44
2023-04-26T00:23:08.764Z,10.38
2023-04-26T00:25:03.857Z,10.25
2023-04-26T00:26:03.865Z,10.19
2023-04-26T00:27:04.416Z,10.12
2023-04-26T00:28:03.943Z,10.12
2023-04-26T00:30:03.708Z,10.06
2023-04-26T00:31:03.695Z,10.12
2023-04-26T00:32:03.929Z,10.06
2023-04-26T00:33:04.379Z,10.00
2023-04-26T00:34:04.137Z,10.06
2023-04-26T00:36:03.930Z,10.19
2023-04-26T00:38:04.414Z,10.06
2023-04-26T00:39:03.624Z,10.00
2023-04-26T00:40:03.697Z,10.00
2023-04-26T00:41:03.853Z,10.00
2023-04-26T00:43:04.102Z,9.88
2023-04-26T00:45:03.448Z,9.94
2023-04-26T00:46:04.146Z,10.00
2023-04-26T00:47:03.776Z,10.06
2023-04-26T00:48:04.373Z,10.00
2023-04-26T00:49:04.420Z,9.94
2023-04-26T00:51:03.861Z,9.75
2023-04-26T00:52:04.498Z,9.81
2023-04-26T00:53:04.435Z,9.88
2023-04-26T00:55:04.013Z,10.12
2023-04-26T00:56:03.729Z,10.12
2023-04-26T00:57:03.777Z,10.12
2023-04-26T00:58:04.503Z,10.25
2023-04-26T00:59:04.431Z,10.19
2023-04-26T01:00:04.418Z,10.19
2023-04-26T01:02:04.142Z,10.12
2023-04-26T01:03:03.988Z,10.12
2023-04-26T01:04:04.615Z,9.94
2023-04-26T01:05:04.272Z,10.00
2023-04-26T01:06:03.768Z,10.25
2023-04-26T01:07:03.775Z,10.31
2023-04-26T01:08:04.261Z,10.25
2023-04-26T01:09:03.851Z,10.19
2023-04-26T01:11:04.408Z,10.19
2023-04-26T01:12:04.015Z,10.00
2023-04-26T01:14:04.039Z,10.00
2023-04-26T01:15:03.793Z,10.06
2023-04-26T01:16:04.222Z,9.94
2023-04-26T01:17:03.821Z,9.81
2023-04-26T01:18:03.979Z,9.81
2023-04-26T01:20:04.091Z,10.12
2023-04-26T01:21:03.673Z,10.12
2023-04-26T01:22:03.526Z,10.19
2023-04-26T01:24:04.098Z,10.19
2023-04-26T01:25:04.330Z,10.25
2023-04-26T01:27:03.699Z,10.06
2023-04-26T01:29:04.349Z,10.19
2023-04-26T01:31:03.835Z,10.19
2023-04-26T01:32:04.433Z,10.12
2023-04-26T01:33:04.155Z,10.00
2023-04-26T01:35:04.425Z,10.00
2023-04-26T01:38:04.106Z,10.00
2023-04-26T01:40:04.158Z,9.88
2023-04-26T01:42:04.343Z,9.81
2023-04-26T01:44:04.414Z,9.75
2023-04-26T01:45:04.177Z,9.88
2023-04-26T01:47:03.702Z,9.88
2023-04-26T01:48:04.292Z,9.75
2023-04-26T01:49:03.949Z,9.94
2023-04-26T01:50:04.321Z,10.06
2023-04-26T01:51:03.930Z,9.94
2023-04-26T01:53:04.017Z,9.81
2023-04-26T01:54:03.609Z,9.75
2023-04-26T01:55:04.248Z,9.75
2023-04-26T01:58:04.332Z,9.88
2023-04-26T02:00:03.771Z,9.81
2023-04-26T02:01:04.327Z,9.69
2023-04-26T02:02:04.525Z,9.62
2023-04-26T02:03:03.681Z,9.50
2023-04-26T02:05:09.422Z,9.25
2023-04-26T02:06:04.147Z,9.25
2023-04-26T02:07:03.930Z,9.31
2023-04-26T02:08:04.416Z,9.31
2023-04-26T02:09:04.046Z,9.31
2023-04-26T02:11:04.277Z,9.38
2023-04-26T02:13:04.338Z,9.38
2023-04-26T02:17:04.346Z,9.25
2023-04-26T02:19:03.776Z,9.19
2023-04-26T02:20:04.501Z,9.19
2023-04-26T02:21:04.027Z,9.25
2023-04-26T02:22:03.460Z,9.31
2023-04-26T02:23:04.264Z,9.19
2023-04-26T02:25:03.800Z,9.00
2023-04-26T02:26:03.852Z,8.88
2023-04-26T02:27:03.877Z,8.75
2023-04-26T02:29:04.434Z,8.69
2023-04-26T02:30:04.193Z,8.62
2023-04-26T02:31:03.722Z,8.69
2023-04-26T02:32:04.262Z,8.56
2023-04-26T02:33:03.888Z,8.50
2023-04-26T02:34:03.537Z,8.50
2023-04-26T02:37:03.537Z,8.50
2023-04-26T02:38:04.282Z,8.38
2023-04-26T02:39:03.941Z,8.38
2023-04-26T02:40:03.940Z,8.50
2023-04-26T02:42:03.629Z,8.38
2023-04-26T02:43:03.644Z,8.31
2023-04-26T02:44:04.194Z,8.19
2023-04-26T02:45:03.843Z,8.50
2023-04-26T02:46:03.926Z,8.56
2023-04-26T02:47:09.298Z,8.44
2023-04-26T02:49:03.704Z,8.25
2023-04-26T02:50:03.930Z,8.44
2023-04-26T02:51:03.927Z,8.56
2023-04-26T02:54:06.447Z,8.75
2023-04-26T02:55:03.864Z,8.94
2023-04-26T02:56:03.876Z,9.00
2023-04-26T02:57:04.323Z,8.94
2023-04-26T02:58:03.897Z,8.81
2023-04-26T02:59:03.535Z,8.88
2023-04-26T03:00:04.418Z,9.00
2023-04-26T03:02:03.671Z,9.00
2023-04-26T03:03:04.036Z,8.88
2023-04-26T03:04:03.649Z,8.88
2023-04-26T03:05:03.718Z,8.94
2023-04-26T03:06:04.409Z,9.12
2023-04-26T03:07:04.022Z,9.06
2023-04-26T03:08:03.530Z,9.31
2023-04-26T03:10:04.090Z,9.12
2023-04-26T03:11:04.182Z,9.00
2023-04-26T03:12:04.332Z,9.06
2023-04-26T03:13:03.922Z,9.00
2023-04-26T03:14:03.550Z,8.88
2023-04-26T03:15:05.056Z,8.88
2023-04-26T03:16:03.638Z,8.81
2023-04-26T03:17:04.332Z,8.81
2023-04-26T03:18:04.373Z,8.69
2023-04-26T03:20:05.238Z,8.38
2023-04-26T03:21:03.833Z,8.19
2023-04-26T03:22:03.560Z,8.19
2023-04-26T03:23:03.938Z,8.12
2023-04-26T03:25:03.852Z,8.00
2023-04-26T03:26:03.623Z,8.00
2023-04-26T03:27:04.172Z,8.00
2023-04-26T03:29:04.266Z,8.06
2023-04-26T03:32:04.205Z,7.88
2023-04-26T03:34:04.091Z,7.94
2023-04-26T03:36:04.254Z,8.19
2023-04-26T03:37:03.695Z,8.06
2023-04-26T03:38:04.357Z,8.06
2023-04-26T03:40:03.542Z,7.88
2023-04-26T03:41:04.487Z,7.94
2023-04-26T03:42:04.202Z,8.00
2023-04-26T03:43:08.717Z,8.06
2023-04-26T03:44:03.952Z,8.25
2023-04-26T03:46:03.675Z,8.62
2023-04-26T03:47:03.878Z,8.69
2023-04-26T03:48:03.599Z,8.75
2023-04-26T03:49:03.597Z,8.69
2023-04-26T03:51:03.659Z,8.69
2023-04-26T03:52:03.710Z,8.81
2023-04-26T03:53:04.278Z,8.88
2023-04-26T03:54:03.787Z,9.31
2023-04-26T03:55:03.549Z,9.19
2023-04-26T03:56:05.060Z,9.06
2023-04-26T03:57:03.928Z,8.81
2023-04-26T03:58:04.196Z,8.69
2023-04-26T04:01:03.542Z,8.12
2023-04-26T04:02:04.085Z,8.44
2023-04-26T04:03:03.952Z,8.38
2023-04-26T04:04:04.174Z,8.44
2023-04-26T04:05:04.064Z,8.31
2023-04-26T04:06:04.336Z,8.31
2023-04-26T04:08:03.943Z,8.38
2023-04-26T04:09:04.407Z,8.69
2023-04-26T04:10:04.192Z,8.62
2023-04-26T04:11:04.174Z,8.56
2023-04-26T04:14:04.171Z,8.44
2023-04-26T04:16:04.385Z,8.12
2023-04-26T04:17:04.099Z,7.88
2023-04-26T04:18:03.595Z,8.12
2023-04-26T04:20:04.257Z,8.19
2023-04-26T04:21:03.759Z,8.38
2023-04-26T04:23:03.860Z,8.19
2023-04-26T04:25:04.432Z,8.44
2023-04-26T04:27:03.694Z,8.25
2023-04-26T04:28:04.109Z,8.62
2023-04-26T04:30:03.610Z,8.56
2023-04-26T04:31:04.354Z,8.38
2023-04-26T04:32:04.165Z,8.44
2023-04-26T04:34:04.421Z,8.56
2023-04-26T04:35:03.940Z,8.44
2023-04-26T04:36:03.531Z,8.62
2023-04-26T04:37:03.622Z,8.50
2023-04-26T04:38:03.697Z,8.44
2023-04-26T04:39:03.718Z,8.38
2023-04-26T04:40:04.178Z,8.31
2023-04-26T04:41:03.934Z,8.25
2023-04-26T04:43:04.162Z,8.31
2023-04-26T04:45:03.459Z,9.00
2023-04-26T04:46:04.142Z,9.38
2023-04-26T04:47:03.705Z,9.62
2023-04-26T04:48:03.635Z,9.94
2023-04-26T04:49:03.851Z,10.06
2023-04-26T04:51:03.924Z,10.62
2023-04-26T04:52:03.612Z,10.81
2023-04-26T04:54:04.339Z,11.31
2023-04-26T04:55:03.943Z,11.56
2023-04-26T04:57:03.531Z,12.00
2023-04-26T04:58:04.182Z,12.31
2023-04-26T04:59:03.686Z,12.62
2023-04-26T05:00:03.714Z,12.81
2023-04-26T05:01:04.183Z,13.12
2023-04-26T05:02:03.820Z,13.44
2023-04-26T05:03:03.963Z,13.88
2023-04-26T05:05:03.875Z,14.62
2023-04-26T05:06:04.421Z,14.94
2023-04-26T05:08:04.024Z,15.75
2023-04-26T05:10:04.418Z,16.56
2023-04-26T05:11:04.171Z,16.94
2023-04-26T05:12:03.867Z,17.38
2023-04-26T05:13:04.010Z,17.81
2023-04-26T05:14:03.539Z,18.25
2023-04-26T05:15:05.204Z,18.69
2023-04-26T05:16:03.983Z,19.06
2023-04-26T05:17:04.094Z,19.56
2023-04-26T05:18:03.757Z,19.94
2023-04-26T05:19:04.024Z,20.06
2023-04-26T05:20:04.198Z,20.44
2023-04-26T05:22:04.336Z,20.75
2023-04-26T05:23:04.018Z,21.06
2023-04-26T05:24:04.192Z,21.38
2023-04-26T05:25:04.096Z,21.75
2023-04-26T05:26:04.181Z,22.06
2023-04-26T05:27:03.869Z,22.06
2023-04-26T05:29:04.108Z,22.62
2023-04-26T05:30:04.198Z,23.00
2023-04-26T05:31:03.532Z,23.25
2023-04-26T05:32:03.679Z,23.56
2023-04-26T05:33:03.738Z,23.69
2023-04-26T05:34:03.786Z,23.44
2023-04-26T05:36:04.261Z,21.19
2023-04-26T05:37:03.916Z,20.88
2023-04-26T05:38:03.561Z,19.94
2023-04-26T05:39:04.033Z,19.56
2023-04-26T05:40:04.274Z,20.81
2023-04-26T05:41:04.016Z,21.94
2023-04-26T05:42:04.174Z,21.56
2023-04-26T05:43:04.199Z,20.62
2023-04-26T05:45:03.893Z,19.94
2023-04-26T05:46:04.055Z,19.06
2023-04-26T05:47:03.782Z,18.81
2023-04-26T05:48:04.368Z,19.31
2023-04-26T05:49:04.092Z,20.81
2023-04-26T05:50:03.692Z,21.94
2023-04-26T05:51:03.721Z,22.69
2023-04-26T05:52:04.258Z,23.31
2023-04-26T05:54:03.937Z,24.06
2023-04-26T05:55:03.863Z,24.31
2023-04-26T05:56:03.968Z,24.38
2023-04-26T05:57:04.350Z,24.56
2023-04-26T05:58:04.198Z,24.38
2023-04-26T06:01:03.532Z,24.62
2023-04-26T06:02:04.367Z,25.00
2023-04-26T06:04:04.681Z,24.88
2023-04-26T06:06:04.411Z,25.00
2023-04-26T06:07:04.433Z,24.88
2023-04-26T06:08:03.927Z,24.50
2023-04-26T06:09:04.023Z,24.69
2023-04-26T06:10:03.692Z,24.19
2023-04-26T06:11:03.784Z,24.31
2023-04-26T06:12:03.685Z,24.50
2023-04-26T06:14:03.799Z,23.81
2023-04-26T06:15:04.012Z,24.00
2023-04-26T06:16:03.852Z,23.50
2023-04-26T06:18:03.629Z,22.50
2023-04-26T06:19:04.349Z,22.38
2023-04-26T06:20:03.849Z,22.31
2023-04-26T06:21:04.506Z,22.06
2023-04-26T06:22:04.108Z,21.50
2023-04-26T06:23:03.534Z,21.00
2023-04-26T06:24:03.776Z,20.62
2023-04-26T06:26:04.414Z,20.00
2023-04-26T06:27:04.291Z,19.75
2023-04-26T06:29:03.697Z,19.31
2023-04-26T06:30:04.343Z,19.19
2023-04-26T06:32:03.946Z,19.12
2023-04-26T06:33:04.200Z,19.19
2023-04-26T06:34:04.515Z,19.12
2023-04-26T06:35:04.251Z,19.19
2023-04-26T06:36:04.267Z,19.06
2023-04-26T06:37:04.096Z,19.31
2023-04-26T06:39:03.786Z,19.44
2023-04-26T06:40:04.512Z,19.44
2023-04-26T06:41:04.031Z,19.44
2023-04-26T06:42:04.185Z,19.38
2023-04-26T06:43:03.852Z,19.25
2023-04-26T06:44:03.931Z,19.19
2023-04-26T06:45:03.695Z,19.19
2023-04-26T06:46:03.719Z,19.06
2023-04-26T06:47:03.617Z,19.06
2023-04-26T06:48:04.677Z,19.00
2023-04-26T06:50:04.178Z,18.62
2023-04-26T06:51:04.100Z,18.38
2023-04-26T06:52:04.413Z,18.25
2023-04-26T06:53:04.190Z,18.19
2023-04-26T06:54:03.702Z,18.19
2023-04-26T06:55:04.426Z,17.94
2023-04-26T06:56:04.016Z,17.88
2023-04-26T06:58:03.612Z,17.94
2023-04-26T06:59:04.106Z,18.06
2023-04-26T07:00:03.709Z,18.06
2023-04-26T07:01:04.351Z,18.00
2023-04-26T07:03:04.744Z,18.25
2023-04-26T07:05:03.756Z,18.12
2023-04-26T07:06:03.629Z,18.12
2023-04-26T07:08:04.203Z,17.88
2023-04-26T07:09:04.106Z,17.81
2023-04-26T07:10:04.262Z,17.75
2023-04-26T07:11:04.372Z,17.69
2023-04-26T07:12:04.026Z,17.50
2023-04-26T07:13:03.451Z,17.44
2023-04-26T07:14:04.201Z,17.44
2023-04-26T07:15:03.870Z,17.50
2023-04-26T07:16:03.967Z,17.25
2023-04-26T07:17:03.789Z,17.06
2023-04-26T07:18:03.874Z,17.38
2023-04-26T07:19:04.501Z,17.62
2023-04-26T07:20:04.296Z,17.75
2023-04-26T07:21:04.851Z,17.94
2023-04-26T07:22:03.625Z,17.81
2023-04-26T07:23:03.866Z,17.81
2023-04-26T07:24:03.691Z,17.81
2023-04-26T07:25:04.433Z,17.94
2023-04-26T07:26:03.940Z,18.00
2023-04-26T07:28:04.261Z,17.75
2023-04-26T07:30:04.333Z,17.62
2023-04-26T07:31:06.017Z,17.44
2023-04-26T07:32:04.537Z,17.19
2023-04-26T07:33:04.170Z,17.06
2023-04-26T07:34:04.098Z,16.88
2023-04-26T07:36:03.612Z,17.00
2023-04-26T07:38:04.273Z,17.12
2023-04-26T07:41:03.995Z,17.50
2023-04-26T07:43:04.115Z,17.62
2023-04-26T07:44:03.795Z,17.56
2023-04-26T07:45:04.534Z,17.56
2023-04-26T07:46:04.109Z,17.62
2023-04-26T07:47:03.845Z,17.69
2023-04-26T07:48:04.510Z,17.69
2023-04-26T07:50:04.191Z,17.75
2023-04-26T07:52:03.458Z,17.56
2023-04-26T07:54:04.341Z,17.50
2023-04-26T07:55:04.347Z,17.81
2023-04-26T07:56:03.944Z,17.88
2023-04-26T07:57:04.028Z,17.81
2023-04-26T07:58:03.626Z,17.94
2023-04-26T07:59:03.654Z,18.00
2023-04-26T08:00:04.274Z,17.94
2023-04-26T08:01:03.927Z,18.12
2023-04-26T08:02:03.650Z,18.12
2023-04-26T08:03:03.728Z,17.88
2023-04-26T08:04:03.755Z,17.81
2023-04-26T08:05:04.309Z,17.81
2023-04-26T08:06:04.356Z,17.56
2023-04-26T08:09:04.274Z,17.38
2023-04-26T08:10:03.783Z,17.25
2023-04-26T08:11:03.872Z,17.19
2023-04-26T08:12:03.570Z,17.12
2023-04-26T08:13:03.623Z,17.06
2023-04-26T08:15:04.524Z,17.00
2023-04-26T08:16:04.109Z,17.00
2023-04-26T08:17:04.179Z,16.94
2023-04-26T08:18:04.383Z,17.00
2023-04-26T08:19:04.492Z,17.06
2023-04-26T08:21:04.252Z,16.94
2023-04-26T08:23:04.028Z,16.88
2023-04-26T08:24:03.630Z,16.88
2023-04-26T08:25:04.190Z,16.88
2023-04-26T08:26:03.781Z,17.12
2023-04-26T08:28:04.098Z,17.06
2023-04-26T08:29:03.932Z,17.12
2023-04-26T08:30:03.526Z,17.25
2023-04-26T08:31:04.276Z,17.12
2023-04-26T08:32:04.019Z,17.25
2023-04-26T08:33:03.698Z,17.25
2023-04-26T08:34:04.258Z,17.31
2023-04-26T08:36:04.419Z,17.62
2023-04-26T08:37:04.004Z,17.56
2023-04-26T08:38:04.025Z,17.44
2023-04-26T08:39:03.697Z,17.25
2023-04-26T08:40:04.431Z,17.38
2023-04-26T08:41:04.414Z,17.38
2023-04-26T08:43:04.454Z,17.50
2023-04-26T08:44:04.101Z,17.62
2023-04-26T08:46:03.626Z,17.62
2023-04-26T08:47:03.691Z,17.75
2023-04-26T08:48:04.844Z,17.62
2023-04-26T08:49:03.772Z,17.75
2023-04-26T08:50:04.423Z,17.75
2023-04-26T08:52:03.550Z,17.56
2023-04-26T08:54:04.912Z,17.31
2023-04-26T08:56:03.628Z,17.12
2023-04-26T08:57:04.096Z,17.25
2023-04-26T08:59:03.690Z,17.06
2023-04-26T09:00:04.268Z,17.06
2023-04-26T09:01:03.786Z,17.25
2023-04-26T09:02:03.903Z,17.00
2023-04-26T09:03:03.656Z,16.81
2023-04-26T09:04:04.533Z,16.75
2023-04-26T09:05:04.646Z,16.94
2023-04-26T09:06:04.848Z,16.88
2023-04-26T09:08:03.610Z,16.88
2023-04-26T09:09:03.708Z,17.19
2023-04-26T09:11:03.638Z,17.00
2023-04-26T09:12:04.264Z,17.06
2023-04-26T09:13:03.856Z,16.81
2023-04-26T09:14:04.106Z,16.81
2023-04-26T09:15:03.928Z,16.56
2023-04-26T09:16:04.913Z,16.44
2023-04-26T09:18:04.039Z,16.56
2023-04-26T09:19:04.183Z,16.56
2023-04-26T09:20:05.947Z,16.31
2023-04-26T09:21:04.187Z,16.44
2023-04-26T09:22:03.702Z,16.44
2023-04-26T09:23:04.572Z,16.50
2023-04-26T09:25:04.102Z,16.62
2023-04-26T09:26:03.773Z,16.50
2023-04-26T09:28:04.356Z,16.50
2023-04-26T09:29:04.101Z,16.69
2023-04-26T09:31:04.513Z,16.75
2023-04-26T09:33:03.848Z,16.69
2023-04-26T09:34:03.865Z,16.62
2023-04-26T09:35:03.532Z,16.38
2023-04-26T09:36:03.620Z,16.44
2023-04-26T09:37:04.167Z,16.56
2023-04-26T09:38:07.766Z,16.50
2023-04-26T09:40:04.429Z,16.62
2023-04-26T09:41:04.012Z,16.50
2023-04-26T09:42:03.609Z,16.31
2023-04-26T09:43:03.775Z,16.62
2023-04-26T09:44:04.424Z,16.50
2023-04-26T09:45:04.175Z,16.38
2023-04-26T09:47:03.836Z,16.25
2023-04-26T09:48:03.716Z,16.19
2023-04-26T09:49:04.275Z,15.88
2023-04-26T09:50:03.863Z,15.94
2023-04-26T09:51:04.174Z,15.94
2023-04-26T09:52:03.724Z,15.88
2023-04-26T09:53:04.429Z,15.81
2023-04-26T09:54:04.012Z,15.81
2023-04-26T09:56:03.712Z,15.75
2023-04-26T09:57:04.228Z,15.88
2023-04-26T09:58:03.936Z,15.94
2023-04-26T10:00:04.172Z,15.94
2023-04-26T10:02:03.865Z,16.12
2023-04-26T10:03:03.581Z,16.06
2023-04-26T10:04:04.211Z,15.62
2023-04-26T10:05:04.278Z,15.56
2023-04-26T10:06:04.269Z,15.69
2023-04-26T10:08:04.251Z,15.75
2023-04-26T10:10:04.504Z,16.25
2023-04-26T10:11:04.028Z,16.31
2023-04-26T10:12:03.768Z,16.25
2023-04-26T10:13:04.004Z,16.38
2023-04-26T10:14:03.613Z,16.31
2023-04-26T10:15:04.420Z,16.31
2023-04-26T10:17:04.358Z,16.31
2023-04-26T10:18:04.300Z,16.19
2023-04-26T10:20:03.984Z,16.25
2023-04-26T10:21:03.777Z,16.06
2023-04-26T10:22:04.325Z,16.12
2023-04-26T10:24:03.524Z,16.06
2023-04-26T10:25:04.087Z,15.94
2023-04-26T10:26:04.254Z,15.94
2023-04-26T10:27:04.187Z,16.00
2023-04-26T10:29:04.055Z,15.88
2023-04-26T10:30:04.090Z,16.19
2023-04-26T10:31:03.860Z,16.19
2023-04-26T10:32:03.991Z,16.06
2023-04-26T10:34:03.876Z,16.06
2023-04-26T10:35:04.403Z,15.88
2023-04-26T10:36:04.081Z,15.88
2023-04-26T10:37:03.615Z,16.00
2023-04-26T10:38:03.781Z,16.19
2023-04-26T10:39:03.532Z,16.31
2023-04-26T10:40:03.714Z,16.31
2023-04-26T10:41:03.857Z,16.62
2023-04-26T10:42:03.547Z,16.62
2023-04-26T10:43:04.347Z,16.56
2023-04-26T10:44:03.934Z,16.44
2023-04-26T10:46:04.460Z,16.25
2023-04-26T10:47:04.248Z,16.25
2023-04-26T10:49:03.706Z,16.38
2023-04-26T10:50:05.511Z,16.25
2023-04-26T10:51:03.852Z,16.19
2023-04-26T10:53:04.531Z,16.25
2023-04-26T10:54:04.436Z,16.38
2023-04-26T10:55:04.264Z,16.38
2023-04-26T10:57:04.033Z,16.25
2023-04-26T10:59:08.207Z,16.06
2023-04-26T11:01:04.276Z,16.06
2023-04-26T11:02:04.337Z,15.88
2023-04-26T11:03:04.416Z,15.81
2023-04-26T11:05:03.771Z,15.75
2023-04-26T11:06:03.538Z,15.56
2023-04-26T11:07:04.264Z,15.56
2023-04-26T11:08:03.889Z,15.75
2023-04-26T11:09:04.346Z,15.75
2023-04-26T11:10:04.180Z,15.94
2023-04-26T11:12:03.682Z,15.81
2023-04-26T11:13:03.778Z,15.88
2023-04-26T11:15:04.343Z,15.75
2023-04-26T11:16:04.541Z,15.81
2023-04-26T11:18:03.973Z,15.69
2023-04-26T11:19:03.605Z,15.69
2023-04-26T11:20:03.769Z,15.69
2023-04-26T11:21:04.435Z,15.75
2023-04-26T11:22:04.168Z,15.94
2023-04-26T11:23:04.265Z,15.88
2023-04-26T11:26:04.426Z,15.88
2023-04-26T11:27:04.175Z,15.94
2023-04-26T11:28:04.176Z,15.81
2023-04-26T11:29:03.867Z,15.81
2023-04-26T11:30:03.809Z,16.06
2023-04-26T11:31:03.893Z,16.19
2023-04-26T11:32:03.550Z,16.12
2023-04-26T11:33:04.321Z,16.19
2023-04-26T11:34:03.944Z,16.31
2023-04-26T11:36:04.065Z,16.38
2023-04-26T11:37:03.692Z,16.38
2023-04-26T11:39:03.873Z,16.44
2023-04-26T11:40:04.447Z,16.56
2023-04-26T11:41:04.422Z,16.25
2023-04-26T11:42:04.499Z,16.12
2023-04-26T11:43:04.103Z,16.38
2023-04-26T11:44:04.341Z,16.38
2023-04-26T11:46:03.696Z,16.38
2023-04-26T11:47:03.644Z,16.31
2023-04-26T11:48:03.664Z,16.31
2023-04-26T11:49:03.849Z,16.12
2023-04-26T11:50:04.494Z,16.19
2023-04-26T11:51:04.038Z,16.00
2023-04-26T11:52:03.616Z,16.06
2023-04-26T11:53:04.262Z,16.12
2023-04-26T11:54:03.922Z,16.00
2023-04-26T11:56:04.172Z,16.56
2023-04-26T11:58:04.337Z,16.62
2023-04-26T11:59:03.529Z,16.81
2023-04-26T12:00:04.258Z,16.69
2023-04-26T12:01:04.281Z,16.56
2023-04-26T12:03:04.307Z,16.50
2023-04-26T12:04:04.265Z,16.44
2023-04-26T12:05:04.345Z,16.31
2023-04-26T12:06:04.426Z,16.50
2023-04-26T12:07:04.038Z,16.44
2023-04-26T12:08:03.808Z,16.62
2023-04-26T12:09:03.613Z,16.94
2023-04-26T12:10:04.258Z,16.69
2023-04-26T12:11:04.415Z,16.69
2023-04-26T12:12:03.926Z,17.00
2023-04-26T12:13:04.094Z,16.88
2023-04-26T12:14:03.825Z,17.00
2023-04-26T12:15:04.549Z,16.81
2023-04-26T12:16:07.388Z,16.75
2023-04-26T12:17:04.553Z,16.88
2023-04-26T12:18:04.460Z,16.88
2023-04-26T12:20:03.629Z,16.94
2023-04-26T12:21:04.170Z,17.25
2023-04-26T12:23:04.103Z,16.94
2023-04-26T12:24:03.776Z,16.75
2023-04-26T12:25:04.257Z,16.81
2023-04-26T12:26:04.256Z,16.94
2023-04-26T12:28:04.046Z,16.94
2023-04-26T12:29:03.450Z,17.25
2023-04-26T12:30:03.683Z,17.31
2023-04-26T12:32:04.536Z,17.38
2023-04-26T12:35:04.014Z,17.38
2023-04-26T12:36:03.698Z,17.62
2023-04-26T12:37:03.610Z,17.38
2023-04-26T12:38:03.620Z,17.38
2023-04-26T12:39:03.781Z,17.50
2023-04-26T12:40:04.509Z,17.38
2023-04-26T12:41:04.109Z,17.19
2023-04-26T12:43:04.185Z,17.06
2023-04-26T12:44:03.697Z,17.12
2023-04-26T12:45:04.416Z,17.19
2023-04-26T12:47:03.772Z,17.38
2023-04-26T12:48:04.524Z,17.44
2023-04-26T12:49:03.711Z,17.44
2023-04-26T12:50:04.343Z,17.44
2023-04-26T12:52:03.702Z,17.50
2023-04-26T12:55:04.412Z,17.31
2023-04-26T12:56:03.557Z,17.38
2023-04-26T12:57:04.093Z,17.25
2023-04-26T12:58:04.183Z,17.25
2023-04-26T13:00:04.349Z,17.25
2023-04-26T13:02:03.533Z,17.19
2023-04-26T13:03:04.218Z,17.00
2023-04-26T13:05:03.759Z,16.62
2023-04-26T13:06:04.415Z,16.75
2023-04-26T13:07:04.340Z,16.81
2023-04-26T13:08:03.776Z,16.62
2023-04-26T13:09:04.427Z,16.62
2023-04-26T13:10:05.162Z,16.81
2023-04-26T13:11:03.846Z,16.88
2023-04-26T13:12:04.431Z,17.12
2023-04-26T13:14:03.533Z,16.94
2023-04-26T13:15:04.268Z,16.50
2023-04-26T13:16:03.990Z,16.19
2023-04-26T13:17:03.700Z,16.19
2023-04-26T13:18:04.455Z,16.19
2023-04-26T13:19:03.984Z,16.19
2023-04-26T13:21:04.181Z,16.12
2023-04-26T13:23:03.939Z,16.38
2023-04-26T13:24:04.023Z,16.06
2023-04-26T13:25:03.934Z,16.00
2023-04-26T13:26:03.848Z,16.06
2023-04-26T13:27:04.030Z,16.06
2023-04-26T13:30:04.337Z,16.44
2023-04-26T13:32:04.103Z,16.69
2023-04-26T13:33:03.956Z,16.56
2023-04-26T13:34:04.020Z,16.44
2023-04-26T13:35:03.794Z,16.38
2023-04-26T13:36:04.191Z,16.25
2023-04-26T13:37:03.900Z,16.38
2023-04-26T13:38:03.868Z,16.56
2023-04-26T13:39:04.344Z,16.56
2023-04-26T13:40:03.866Z,16.56
2023-04-26T13:42:04.185Z,16.62
2023-04-26T13:44:04.418Z,16.62
2023-04-26T13:46:03.535Z,16.69
2023-04-26T13:47:04.324Z,16.94
2023-04-26T13:48:04.011Z,16.88
2023-04-26T13:49:04.105Z,16.75
2023-04-26T13:50:03.613Z,16.62
2023-04-26T13:51:06.190Z,16.62
2023-04-26T13:53:04.180Z,16.19
2023-04-26T13:54:04.256Z,16.38
2023-04-26T13:55:04.118Z,16.44
2023-04-26T13:56:03.611Z,16.50
2023-04-26T13:57:04.346Z,16.50
2023-04-26T13:59:04.745Z,16.69
2023-04-26T14:01:03.656Z,16.69
2023-04-26T14:02:04.405Z,16.50
2023-04-26T14:03:04.068Z,16.75
2023-04-26T14:04:04.696Z,16.94
2023-04-26T14:05:03.689Z,16.81
2023-04-26T14:06:04.253Z,16.75
2023-04-26T14:08:03.962Z,16.62
2023-04-26T14:09:03.931Z,16.62
2023-04-26T14:10:03.933Z,16.75
2023-04-26T14:12:08.272Z,16.56
2023-04-26T14:13:04.030Z,16.56
2023-04-26T14:14:04.414Z,16.50
2023-04-26T14:16:04.225Z,16.38
2023-04-26T14:17:04.430Z,16.38
2023-04-26T14:18:04.869Z,16.25
2023-04-26T14:19:03.929Z,16.06
2023-04-26T14:20:03.553Z,15.94
2023-04-26T14:21:04.101Z,15.75
2023-04-26T14:22:03.850Z,15.62
2023-04-26T14:23:03.630Z,15.62
2023-04-26T14:24:04.176Z,15.56
2023-04-26T14:25:03.808Z,15.50
2023-04-26T14:26:03.847Z,15.75
2023-04-26T14:27:03.777Z,15.69
2023-04-26T14:29:04.499Z,15.75
2023-04-26T14:31:03.858Z,15.75
2023-04-26T14:32:03.590Z,15.75
2023-04-26T14:33:04.325Z,15.50
2023-04-26T14:34:04.341Z,15.31
2023-04-26T14:36:04.341Z,15.12
2023-04-26T14:37:04.151Z,15.38
2023-04-26T14:38:04.254Z,15.19
2023-04-26T14:39:04.002Z,15.06
2023-04-26T14:40:03.948Z,15.06
2023-04-26T14:42:03.569Z,15.19
2023-04-26T14:43:04.273Z,15.06
2023-04-26T14:45:03.704Z,14.88
2023-04-26T14:46:03.710Z,15.00
2023-04-26T14:48:03.968Z,15.06
2023-04-26T14:49:03.613Z,15.19
2023-04-26T14:51:04.340Z,15.12
2023-04-26T14:53:03.936Z,15.12
2023-04-26T14:55:04.418Z,15.31
2023-04-26T14:56:04.011Z,15.62
2023-04-26T14:57:04.579Z,15.62
2023-04-26T14:58:04.011Z,15.56
2023-04-26T15:00:03.654Z,15.62
2023-04-26T15:01:04.008Z,15.56
2023-04-26T15:02:04.079Z,15.56
2023-04-26T15:03:04.393Z,15.50
2023-04-26T15:04:03.948Z,15.50
2023-04-26T15:05:04.046Z,15.44
2023-04-26T15:06:04.094Z,15.19
2023-04-26T15:07:04.103Z,15.00
2023-04-26T15:09:04.233Z,15.12
2023-04-26T15:10:04.002Z,15.12
2023-04-26T15:11:03.655Z,15.38
2023-04-26T15:12:04.517Z,15.38
2023-04-26T15:13:03.616Z,15.38
2023-04-26T15:14:04.392Z,15.38
2023-04-26T15:16:06.872Z,15.31
2023-04-26T15:18:04.586Z,15.19
2023-04-26T15:19:04.257Z,15.19
2023-04-26T15:21:03.533Z,15.19
2023-04-26T15:23:04.422Z,15.19
2023-04-26T15:24:03.557Z,15.56
2023-04-26T15:25:04.186Z,15.69
2023-04-26T15:26:04.186Z,15.56
2023-04-26T15:27:03.788Z,15.75
2023-04-26T15:28:03.938Z,15.69
2023-04-26T15:30:03.537Z,16.00
2023-04-26T15:31:04.290Z,15.81
2023-04-26T15:32:04.130Z,15.81
2023-04-26T15:33:04.223Z,15.69
2023-04-26T15:34:03.956Z,15.81
2023-04-26T15:35:04.104Z,16.00
2023-04-26T15:37:04.008Z,16.38
2023-04-26T15:38:03.441Z,16.50
2023-04-26T15:40:04.291Z,16.38
2023-04-26T15:41:04.344Z,16.38
2023-04-26T15:42:03.799Z,16.38
2023-04-26T15:43:04.576Z,16.25
2023-04-26T15:45:04.102Z,16.06
2023-04-26T15:46:03.758Z,16.19
2023-04-26T15:47:04.274Z,16.19
2023-04-26T15:49:03.520Z,16.00
2023-04-26T15:51:05.255Z,15.88
2023-04-26T15:52:03.920Z,15.94
2023-04-26T15:53:03.531Z,15.81
2023-04-26T15:54:04.269Z,15.50
2023-04-26T15:55:04.016Z,15.62
2023-04-26T15:57:03.691Z,15.88
2023-04-26T15:58:04.187Z,15.75
2023-04-26T16:00:04.420Z,15.50
2023-04-26T16:02:03.753Z,15.75
2023-04-26T16:03:03.723Z,15.69
2023-04-26T16:04:03.993Z,15.69
2023-04-26T16:05:03.883Z,15.69
2023-04-26T16:06:04.415Z,15.81
2023-04-26T16:07:04.345Z,15.88
2023-04-26T16:09:06.432Z,16.06
2023-04-26T16:10:04.360Z,15.88
2023-04-26T16:12:03.659Z,15.38
2023-04-26T16:13:04.335Z,15.44
2023-04-26T16:14:04.353Z,15.31
2023-04-26T16:15:03.862Z,15.31
2023-04-26T16:16:03.866Z,15.25
2023-04-26T16:17:03.944Z,15.31
2023-04-26T16:18:03.783Z,15.12
2023-04-26T16:19:03.870Z,15.12
2023-04-26T16:20:04.421Z,15.12
2023-04-26T16:21:04.421Z,15.00
2023-04-26T16:22:04.443Z,14.94
2023-04-26T16:23:04.496Z,14.75
2023-04-26T16:24:04.490Z,14.94
2023-04-26T16:25:04.335Z,14.88
2023-04-26T16:26:03.852Z,15.12
2023-04-26T16:27:03.461Z,15.19
2023-04-26T16:28:03.565Z,15.25
2023-04-26T16:29:04.409Z,15.38
2023-04-26T16:31:03.826Z,15.25